sensor_id;sensor_type;location;lat;lon;timestamp;temperature;humidity
45066;DHT22;30830;53.704;10.004;2023-04-10T00:01:01;5.40;99.90
45066;DHT22;30830;53.704;10.004;2023-04-10T00:03:27;5.40;99.90
45066;DHT22;30830;53.704;10.004;2023-04-10T00:05:54;5.40;99.90
45066;DHT22;30830;53.704;10.004;2023-04-10T00:08:23;5.40;99.90
45066;DHT22;30830;53.704;10.004;2023-04-10T00:10:49;5.40;99.90
45066;DHT22;30830;53.704;10.004;2023-04-10T00:13:15;5.40;99.90
45066;DHT22;30830;53.704;10.004;2023-04-10T00:15:42;5.40;99.90
45066;DHT22;30830;53.704;10.004;2023-04-10T00:18:07;5.50;99.90
45066;DHT22;30830;53.704;10.004;2023-04-10T00:20:33;5.50;99.90
45066;DHT22;30830;53.704;10.004;2023-04-10T00:22:58;5.50;99.90
45066;DHT22;30830;53.704;10.004;2023-04-10T00:25:24;5.50;99.90
45066;DHT22;30830;53.704;10.004;2023-04-10T00:27:52;5.40;99.90
45066;DHT22;30830;53.704;10.004;2023-04-10T00:30:18;5.50;99.90
45066;DHT22;30830;53.704;10.004;2023-04-10T00:32:43;5.50;99.90
45066;DHT22;30830;53.704;10.004;2023-04-10T00:35:09;5.40;99.90
45066;DHT22;30830;53.704;10.004;2023-04-10T00:37:34;5.40;99.90
45066;DHT22;30830;53.704;10.004;2023-04-10T00:40:00;5.40;99.90
45066;DHT22;30830;53.704;10.004;2023-04-10T00:42:26;5.40;99.90
45066;DHT22;30830;53.704;10.004;2023-04-10T00:44:52;5.40;99.90
45066;DHT22;30830;53.704;10.004;2023-04-10T00:47:19;5.40;99.90
45066;DHT22;30830;53.704;10.004;2023-04-10T00:49:44;5.40;99.90
45066;DHT22;30830;53.704;10.004;2023-04-10T00:52:11;5.40;99.90
45066;DHT22;30830;53.704;10.004;2023-04-10T00:54:36;5.40;99.90
45066;DHT22;30830;53.704;10.004;2023-04-10T00:57:03;5.30;99.90
45066;DHT22;30830;53.704;10.004;2023-04-10T00:59:29;5.30;99.90
45066;DHT22;30830;53.704;10.004;2023-04-10T01:01:56;5.30;99.90
45066;DHT22;30830;53.704;10.004;2023-04-10T01:04:22;5.40;99.90
45066;DHT22;30830;53.704;10.004;2023-04-10T01:06:52;5.30;99.90
45066;DHT22;30830;53.704;10.004;2023-04-10T01:11:59;5.30;99.90
45066;DHT22;30830;53.704;10.004;2023-04-10T01:20:06;5.30;99.90
45066;DHT22;30830;53.704;10.004;2023-04-10T01:22:36;5.40;99.90
45066;DHT22;30830;53.704;10.004;2023-04-10T01:30:34;5.40;99.90
45066;DHT22;30830;53.704;10.004;2023-04-10T01:33:01;5.40;99.90
45066;DHT22;30830;53.704;10.004;2023-04-10T01:35:29;5.40;99.90
45066;DHT22;30830;53.704;10.004;2023-04-10T01:37:56;5.40;99.90
45066;DHT22;30830;53.704;10.004;2023-04-10T01:40:25;5.40;99.90
45066;DHT22;30830;53.704;10.004;2023-04-10T01:42:54;5.40;99.90
45066;DHT22;30830;53.704;10.004;2023-04-10T01:45:24;5.40;99.90
45066;DHT22;30830;53.704;10.004;2023-04-10T01:47:53;5.40;99.90
45066;DHT22;30830;53.704;10.004;2023-04-10T01:50:20;5.40;99.90
45066;DHT22;30830;53.704;10.004;2023-04-10T01:52:49;5.40;99.90
45066;DHT22;30830;53.704;10.004;2023-04-10T01:55:16;5.40;99.90
45066;DHT22;30830;53.704;10.004;2023-04-10T01:57:43;5.40;99.90
45066;DHT22;30830;53.704;10.004;2023-04-10T02:00:10;5.50;99.90
45066;DHT22;30830;53.704;10.004;2023-04-10T02:02:36;5.50;99.90
45066;DHT22;30830;53.704;10.004;2023-04-10T02:05:02;5.50;99.90
45066;DHT22;30830;53.704;10.004;2023-04-10T02:07:35;5.50;99.90
45066;DHT22;30830;53.704;10.004;2023-04-10T02:10:12;5.50;99.90
45066;DHT22;30830;53.704;10.004;2023-04-10T02:12:45;5.50;99.90
45066;DHT22;30830;53.704;10.004;2023-04-10T02:15:13;5.50;99.90
45066;DHT22;30830;53.704;10.004;2023-04-10T02:17:41;5.50;99.90
45066;DHT22;30830;53.704;10.004;2023-04-10T02:20:07;5.50;99.90
45066;DHT22;30830;53.704;10.004;2023-04-10T02:22:35;5.50;99.90
45066;DHT22;30830;53.704;10.004;2023-04-10T02:25:03;5.40;99.90
45066;DHT22;30830;53.704;10.004;2023-04-10T02:27:31;5.40;99.90
45066;DHT22;30830;53.704;10.004;2023-04-10T02:29:57;5.40;99.90
45066;DHT22;30830;53.704;10.004;2023-04-10T02:32:23;5.40;99.90
45066;DHT22;30830;53.704;10.004;2023-04-10T02:34:49;5.40;99.90
45066;DHT22;30830;53.704;10.004;2023-04-10T02:37:14;5.30;99.90
45066;DHT22;30830;53.704;10.004;2023-04-10T02:39:40;5.30;99.90
45066;DHT22;30830;53.704;10.004;2023-04-10T02:42:06;5.30;99.90
45066;DHT22;30830;53.704;10.004;2023-04-10T02:44:32;5.20;99.90
45066;DHT22;30830;53.704;10.004;2023-04-10T02:46:57;5.20;99.90
45066;DHT22;30830;53.704;10.004;2023-04-10T02:49:23;5.20;99.90
45066;DHT22;30830;53.704;10.004;2023-04-10T02:51:48;5.20;99.90
45066;DHT22;30830;53.704;10.004;2023-04-10T02:54:14;5.20;99.90
45066;DHT22;30830;53.704;10.004;2023-04-10T02:56:40;5.20;99.90
45066;DHT22;30830;53.704;10.004;2023-04-10T02:59:05;5.20;99.90
45066;DHT22;30830;53.704;10.004;2023-04-10T03:01:31;5.20;99.90
45066;DHT22;30830;53.704;10.004;2023-04-10T03:03:57;5.20;99.90
45066;DHT22;30830;53.704;10.004;2023-04-10T03:06:22;5.20;99.90
45066;DHT22;30830;53.704;10.004;2023-04-10T03:08:51;5.10;99.90
45066;DHT22;30830;53.704;10.004;2023-04-10T03:11:17;5.20;99.90
45066;DHT22;30830;53.704;10.004;2023-04-10T03:13:43;5.10;99.90
45066;DHT22;30830;53.704;10.004;2023-04-10T03:16:08;5.10;99.90
45066;DHT22;30830;53.704;10.004;2023-04-10T03:18:34;5.10;99.90
45066;DHT22;30830;53.704;10.004;2023-04-10T03:20:59;5.10;99.90
45066;DHT22;30830;53.704;10.004;2023-04-10T03:23:26;5.10;99.90
45066;DHT22;30830;53.704;10.004;2023-04-10T03:25:52;5.10;99.90
45066;DHT22;30830;53.704;10.004;2023-04-10T03:28:19;5.00;99.90
45066;DHT22;30830;53.704;10.004;2023-04-10T03:30:45;5.00;99.90
45066;DHT22;30830;53.704;10.004;2023-04-10T03:33:10;5.00;99.90
45066;DHT22;30830;53.704;10.004;2023-04-10T03:35:36;5.00;99.90
45066;DHT22;30830;53.704;10.004;2023-04-10T03:38:02;5.00;99.90
45066;DHT22;30830;53.704;10.004;2023-04-10T03:40:27;5.00;99.90
45066;DHT22;30830;53.704;10.004;2023-04-10T03:42:53;4.90;99.90
45066;DHT22;30830;53.704;10.004;2023-04-10T03:45:19;4.90;99.90
45066;DHT22;30830;53.704;10.004;2023-04-10T03:47:45;5.00;99.90
45066;DHT22;30830;53.704;10.004;2023-04-10T03:50:11;4.90;99.90
45066;DHT22;30830;53.704;10.004;2023-04-10T03:52:37;4.90;99.90
45066;DHT22;30830;53.704;10.004;2023-04-10T03:55:02;4.90;99.90
45066;DHT22;30830;53.704;10.004;2023-04-10T03:57:28;4.90;99.90
45066;DHT22;30830;53.704;10.004;2023-04-10T03:59:54;4.90;99.90
45066;DHT22;30830;53.704;10.004;2023-04-10T04:02:19;4.90;99.90
45066;DHT22;30830;53.704;10.004;2023-04-10T04:04:46;4.90;99.90
45066;DHT22;30830;53.704;10.004;2023-04-10T04:07:12;4.90;99.90
45066;DHT22;30830;53.704;10.004;2023-04-10T04:09:38;4.90;99.90
45066;DHT22;30830;53.704;10.004;2023-04-10T04:12:05;4.90;99.90
45066;DHT22;30830;53.704;10.004;2023-04-10T04:14:31;4.90;99.90
45066;DHT22;30830;53.704;10.004;2023-04-10T04:16:57;4.90;99.90
45066;DHT22;30830;53.704;10.004;2023-04-10T04:19:23;4.90;99.90
45066;DHT22;30830;53.704;10.004;2023-04-10T04:21:48;4.90;99.90
45066;DHT22;30830;53.704;10.004;2023-04-10T04:24:14;4.80;99.90
45066;DHT22;30830;53.704;10.004;2023-04-10T04:26:40;4.80;99.90
45066;DHT22;30830;53.704;10.004;2023-04-10T04:29:05;4.80;99.90
45066;DHT22;30830;53.704;10.004;2023-04-10T04:31:31;4.80;99.90
45066;DHT22;30830;53.704;10.004;2023-04-10T04:34:00;4.80;99.90
45066;DHT22;30830;53.704;10.004;2023-04-10T04:36:26;4.90;99.90
45066;DHT22;30830;53.704;10.004;2023-04-10T04:38:55;4.90;99.90
45066;DHT22;30830;53.704;10.004;2023-04-10T04:41:20;4.80;99.90
45066;DHT22;30830;53.704;10.004;2023-04-10T04:43:46;4.80;99.90
45066;DHT22;30830;53.704;10.004;2023-04-10T04:46:12;4.80;99.90
45066;DHT22;30830;53.704;10.004;2023-04-10T04:48:38;4.80;99.90
45066;DHT22;30830;53.704;10.004;2023-04-10T04:51:05;4.80;99.90
45066;DHT22;30830;53.704;10.004;2023-04-10T04:53:31;4.80;99.90
45066;DHT22;30830;53.704;10.004;2023-04-10T04:55:57;4.80;99.90
45066;DHT22;30830;53.704;10.004;2023-04-10T04:58:22;4.80;99.90
45066;DHT22;30830;53.704;10.004;2023-04-10T05:00:50;4.80;99.90
45066;DHT22;30830;53.704;10.004;2023-04-10T05:03:16;4.80;99.90
45066;DHT22;30830;53.704;10.004;2023-04-10T05:05:42;4.80;99.90
45066;DHT22;30830;53.704;10.004;2023-04-10T05:08:07;4.90;99.90
45066;DHT22;30830;53.704;10.004;2023-04-10T05:10:33;4.90;99.90
45066;DHT22;30830;53.704;10.004;2023-04-10T05:12:59;4.90;99.90
45066;DHT22;30830;53.704;10.004;2023-04-10T05:15:24;4.90;99.90
45066;DHT22;30830;53.704;10.004;2023-04-10T05:17:50;5.00;99.90
45066;DHT22;30830;53.704;10.004;2023-04-10T05:20:17;5.00;99.90
45066;DHT22;30830;53.704;10.004;2023-04-10T05:22:43;5.00;99.90
45066;DHT22;30830;53.704;10.004;2023-04-10T05:25:08;5.00;99.90
45066;DHT22;30830;53.704;10.004;2023-04-10T05:27:34;5.10;99.90
45066;DHT22;30830;53.704;10.004;2023-04-10T05:30:00;5.20;99.90
45066;DHT22;30830;53.704;10.004;2023-04-10T05:32:25;5.20;99.90
45066;DHT22;30830;53.704;10.004;2023-04-10T05:34:51;5.30;99.90
45066;DHT22;30830;53.704;10.004;2023-04-10T05:37:16;5.30;99.90
45066;DHT22;30830;53.704;10.004;2023-04-10T05:39:42;5.40;99.90
45066;DHT22;30830;53.704;10.004;2023-04-10T05:42:07;5.50;99.90
45066;DHT22;30830;53.704;10.004;2023-04-10T05:44:33;5.60;99.90
45066;DHT22;30830;53.704;10.004;2023-04-10T05:46:59;5.60;99.90
45066;DHT22;30830;53.704;10.004;2023-04-10T05:49:24;5.70;99.90
45066;DHT22;30830;53.704;10.004;2023-04-10T05:51:50;5.80;99.90
45066;DHT22;30830;53.704;10.004;2023-04-10T05:54:17;5.80;99.90
45066;DHT22;30830;53.704;10.004;2023-04-10T05:56:42;5.90;99.90
45066;DHT22;30830;53.704;10.004;2023-04-10T05:59:08;6.00;99.90
45066;DHT22;30830;53.704;10.004;2023-04-10T06:01:33;6.00;99.90
45066;DHT22;30830;53.704;10.004;2023-04-10T06:03:59;6.10;99.90
45066;DHT22;30830;53.704;10.004;2023-04-10T06:06:25;6.10;99.90
45066;DHT22;30830;53.704;10.004;2023-04-10T06:08:51;6.10;99.90
45066;DHT22;30830;53.704;10.004;2023-04-10T06:11:17;6.20;99.90
45066;DHT22;30830;53.704;10.004;2023-04-10T06:13:42;6.20;99.90
45066;DHT22;30830;53.704;10.004;2023-04-10T06:16:08;6.30;99.90
45066;DHT22;30830;53.704;10.004;2023-04-10T06:18:34;6.40;99.90
45066;DHT22;30830;53.704;10.004;2023-04-10T06:20:59;6.40;99.90
45066;DHT22;30830;53.704;10.004;2023-04-10T06:23:27;6.40;99.90
45066;DHT22;30830;53.704;10.004;2023-04-10T06:25:53;6.50;99.90
45066;DHT22;30830;53.704;10.004;2023-04-10T06:28:19;6.50;99.90
45066;DHT22;30830;53.704;10.004;2023-04-10T06:30:44;6.60;99.90
45066;DHT22;30830;53.704;10.004;2023-04-10T06:33:10;6.60;99.90
45066;DHT22;30830;53.704;10.004;2023-04-10T06:35:36;6.70;99.90
45066;DHT22;30830;53.704;10.004;2023-04-10T06:38:02;6.80;99.90
45066;DHT22;30830;53.704;10.004;2023-04-10T06:40:28;6.80;99.90
45066;DHT22;30830;53.704;10.004;2023-04-10T06:42:55;6.90;99.90
45066;DHT22;30830;53.704;10.004;2023-04-10T06:45:21;6.90;99.90
45066;DHT22;30830;53.704;10.004;2023-04-10T06:47:46;7.00;99.90
45066;DHT22;30830;53.704;10.004;2023-04-10T06:50:12;7.10;99.90
45066;DHT22;30830;53.704;10.004;2023-04-10T06:52:38;7.20;99.90
45066;DHT22;30830;53.704;10.004;2023-04-10T06:55:03;7.30;99.90
45066;DHT22;30830;53.704;10.004;2023-04-10T06:57:29;7.30;99.90
45066;DHT22;30830;53.704;10.004;2023-04-10T06:59:55;7.40;99.90
45066;DHT22;30830;53.704;10.004;2023-04-10T07:02:21;7.50;99.90
45066;DHT22;30830;53.704;10.004;2023-04-10T07:04:46;7.60;99.90
45066;DHT22;30830;53.704;10.004;2023-04-10T07:07:12;7.70;99.90
45066;DHT22;30830;53.704;10.004;2023-04-10T07:09:38;7.80;99.90
45066;DHT22;30830;53.704;10.004;2023-04-10T07:12:04;7.90;99.90
45066;DHT22;30830;53.704;10.004;2023-04-10T07:14:32;8.00;99.90
45066;DHT22;30830;53.704;10.004;2023-04-10T07:16:59;8.20;99.90
45066;DHT22;30830;53.704;10.004;2023-04-10T07:19:25;8.40;99.90
45066;DHT22;30830;53.704;10.004;2023-04-10T07:21:50;8.50;99.90
45066;DHT22;30830;53.704;10.004;2023-04-10T07:24:16;8.70;99.90
45066;DHT22;30830;53.704;10.004;2023-04-10T07:26:46;8.80;99.90
45066;DHT22;30830;53.704;10.004;2023-04-10T07:29:12;9.00;99.90
45066;DHT22;30830;53.704;10.004;2023-04-10T07:31:38;9.20;99.90
45066;DHT22;30830;53.704;10.004;2023-04-10T07:34:04;9.40;99.90
45066;DHT22;30830;53.704;10.004;2023-04-10T07:36:30;9.50;99.90
45066;DHT22;30830;53.704;10.004;2023-04-10T07:38:57;9.70;99.90
45066;DHT22;30830;53.704;10.004;2023-04-10T07:41:22;9.90;99.90
45066;DHT22;30830;53.704;10.004;2023-04-10T07:43:48;10.10;99.90
45066;DHT22;30830;53.704;10.004;2023-04-10T07:46:15;10.30;99.90
45066;DHT22;30830;53.704;10.004;2023-04-10T07:48:41;10.60;99.90
45066;DHT22;30830;53.704;10.004;2023-04-10T07:51:06;10.80;99.90
45066;DHT22;30830;53.704;10.004;2023-04-10T07:53:37;11.00;99.90
45066;DHT22;30830;53.704;10.004;2023-04-10T07:56:03;11.30;99.90
45066;DHT22;30830;53.704;10.004;2023-04-10T07:58:28;11.40;99.90
45066;DHT22;30830;53.704;10.004;2023-04-10T08:00:54;11.60;99.90
45066;DHT22;30830;53.704;10.004;2023-04-10T08:03:20;11.80;99.90
45066;DHT22;30830;53.704;10.004;2023-04-10T08:05:45;12.00;99.90
45066;DHT22;30830;53.704;10.004;2023-04-10T08:08:11;12.30;99.90
45066;DHT22;30830;53.704;10.004;2023-04-10T08:10:37;12.40;99.90
45066;DHT22;30830;53.704;10.004;2023-04-10T08:13:03;12.50;99.90
45066;DHT22;30830;53.704;10.004;2023-04-10T08:15:29;12.70;99.90
45066;DHT22;30830;53.704;10.004;2023-04-10T08:17:54;12.90;99.90
45066;DHT22;30830;53.704;10.004;2023-04-10T08:20:20;13.00;99.90
45066;DHT22;30830;53.704;10.004;2023-04-10T08:22:46;13.10;99.90
45066;DHT22;30830;53.704;10.004;2023-04-10T08:25:11;13.30;99.90
45066;DHT22;30830;53.704;10.004;2023-04-10T08:27:37;13.50;99.90
45066;DHT22;30830;53.704;10.004;2023-04-10T08:30:03;13.70;99.90
45066;DHT22;30830;53.704;10.004;2023-04-10T08:32:28;13.80;99.90
45066;DHT22;30830;53.704;10.004;2023-04-10T08:34:55;14.00;99.90
45066;DHT22;30830;53.704;10.004;2023-04-10T08:37:20;14.10;99.90
45066;DHT22;30830;53.704;10.004;2023-04-10T08:39:47;14.20;99.90
45066;DHT22;30830;53.704;10.004;2023-04-10T08:42:12;14.40;99.90
45066;DHT22;30830;53.704;10.004;2023-04-10T08:44:38;14.40;99.90
45066;DHT22;30830;53.704;10.004;2023-04-10T08:47:04;14.40;99.90
45066;DHT22;30830;53.704;10.004;2023-04-10T08:52:08;14.50;99.90
45066;DHT22;30830;53.704;10.004;2023-04-10T08:54:38;14.60;99.90
45066;DHT22;30830;53.704;10.004;2023-04-10T08:57:06;14.70;99.90
45066;DHT22;30830;53.704;10.004;2023-04-10T08:59:33;14.80;99.90
45066;DHT22;30830;53.704;10.004;2023-04-10T09:01:58;14.90;99.90
45066;DHT22;30830;53.704;10.004;2023-04-10T09:04:25;15.20;99.90
45066;DHT22;30830;53.704;10.004;2023-04-10T09:06:52;15.40;99.90
45066;DHT22;30830;53.704;10.004;2023-04-10T09:09:17;15.50;99.90
45066;DHT22;30830;53.704;10.004;2023-04-10T09:14:20;15.80;99.80
45066;DHT22;30830;53.704;10.004;2023-04-10T09:16:46;15.90;99.90
45066;DHT22;30830;53.704;10.004;2023-04-10T09:19:12;16.00;99.90
45066;DHT22;30830;53.704;10.004;2023-04-10T09:21:37;16.10;99.70
45066;DHT22;30830;53.704;10.004;2023-04-10T09:24:04;16.10;98.80
45066;DHT22;30830;53.704;10.004;2023-04-10T09:26:32;16.10;99.90
45066;DHT22;30830;53.704;10.004;2023-04-10T09:29:03;16.30;99.90
45066;DHT22;30830;53.704;10.004;2023-04-10T09:31:31;16.40;98.40
45066;DHT22;30830;53.704;10.004;2023-04-10T09:34:26;16.50;96.50
45066;DHT22;30830;53.704;10.004;2023-04-10T09:36:57;16.50;95.40
45066;DHT22;30830;53.704;10.004;2023-04-10T09:39:34;16.50;96.70
45066;DHT22;30830;53.704;10.004;2023-04-10T09:42:00;16.50;97.70
45066;DHT22;30830;53.704;10.004;2023-04-10T09:44:37;16.60;97.10
45066;DHT22;30830;53.704;10.004;2023-04-10T09:49:49;16.70;97.10
45066;DHT22;30830;53.704;10.004;2023-04-10T09:54:47;16.80;94.80
45066;DHT22;30830;53.704;10.004;2023-04-10T09:57:17;16.80;95.20
45066;DHT22;30830;53.704;10.004;2023-04-10T09:59:49;16.80;93.20
45066;DHT22;30830;53.704;10.004;2023-04-10T10:02:17;16.80;94.20
45066;DHT22;30830;53.704;10.004;2023-04-10T10:04:45;16.90;94.10
45066;DHT22;30830;53.704;10.004;2023-04-10T10:07:13;17.10;93.90
45066;DHT22;30830;53.704;10.004;2023-04-10T10:09:40;17.10;92.80
45066;DHT22;30830;53.704;10.004;2023-04-10T10:12:06;17.20;93.70
45066;DHT22;30830;53.704;10.004;2023-04-10T10:14:34;17.30;93.80
45066;DHT22;30830;53.704;10.004;2023-04-10T10:17:07;17.30;92.40
45066;DHT22;30830;53.704;10.004;2023-04-10T10:19:44;17.30;91.80
45066;DHT22;30830;53.704;10.004;2023-04-10T10:22:14;17.30;92.50
45066;DHT22;30830;53.704;10.004;2023-04-10T10:24:45;17.30;92.70
45066;DHT22;30830;53.704;10.004;2023-04-10T10:27:13;17.30;92.90
45066;DHT22;30830;53.704;10.004;2023-04-10T10:29:39;17.30;91.80
45066;DHT22;30830;53.704;10.004;2023-04-10T10:32:07;17.30;92.40
45066;DHT22;30830;53.704;10.004;2023-04-10T10:34:34;17.30;92.80
45066;DHT22;30830;53.704;10.004;2023-04-10T10:37:01;17.30;91.00
45066;DHT22;30830;53.704;10.004;2023-04-10T10:39:55;17.40;91.60
45066;DHT22;30830;53.704;10.004;2023-04-10T10:45:22;17.70;90.40
45066;DHT22;30830;53.704;10.004;2023-04-10T10:47:52;17.80;92.70
45066;DHT22;30830;53.704;10.004;2023-04-10T10:50:19;17.90;90.50
45066;DHT22;30830;53.704;10.004;2023-04-10T10:52:49;17.90;90.10
45066;DHT22;30830;53.704;10.004;2023-04-10T10:57:50;17.80;88.30
45066;DHT22;30830;53.704;10.004;2023-04-10T11:00:17;17.80;90.00
45066;DHT22;30830;53.704;10.004;2023-04-10T11:02:43;17.70;88.90
45066;DHT22;30830;53.704;10.004;2023-04-10T11:05:09;17.80;87.30
45066;DHT22;30830;53.704;10.004;2023-04-10T11:11:03;17.80;87.10
45066;DHT22;30830;53.704;10.004;2023-04-10T11:13:33;17.80;82.70
45066;DHT22;30830;53.704;10.004;2023-04-10T11:16:00;17.80;82.80
45066;DHT22;30830;53.704;10.004;2023-04-10T11:21:18;17.70;82.50
45066;DHT22;30830;53.704;10.004;2023-04-10T11:31:45;17.90;83.50
45066;DHT22;30830;53.704;10.004;2023-04-10T11:34:11;18.00;82.60
45066;DHT22;30830;53.704;10.004;2023-04-10T11:36:38;18.10;81.30
45066;DHT22;30830;53.704;10.004;2023-04-10T11:39:05;18.10;80.80
45066;DHT22;30830;53.704;10.004;2023-04-10T11:41:36;18.20;80.30
45066;DHT22;30830;53.704;10.004;2023-04-10T11:44:05;18.20;82.60
45066;DHT22;30830;53.704;10.004;2023-04-10T11:46:35;18.30;79.80
45066;DHT22;30830;53.704;10.004;2023-04-10T11:49:04;18.30;79.30
45066;DHT22;30830;53.704;10.004;2023-04-10T11:51:30;18.30;77.60
45066;DHT22;30830;53.704;10.004;2023-04-10T11:54:16;18.20;77.00
45066;DHT22;30830;53.704;10.004;2023-04-10T11:56:58;18.30;78.70
45066;DHT22;30830;53.704;10.004;2023-04-10T11:59:25;18.30;79.10
45066;DHT22;30830;53.704;10.004;2023-04-10T12:01:52;18.30;78.10
45066;DHT22;30830;53.704;10.004;2023-04-10T12:04:21;18.30;77.90
45066;DHT22;30830;53.704;10.004;2023-04-10T12:06:51;18.40;79.80
45066;DHT22;30830;53.704;10.004;2023-04-10T12:09:19;18.50;79.10
45066;DHT22;30830;53.704;10.004;2023-04-10T12:11:50;18.60;78.70
45066;DHT22;30830;53.704;10.004;2023-04-10T12:14:16;18.70;76.60
45066;DHT22;30830;53.704;10.004;2023-04-10T12:16:42;18.80;75.20
45066;DHT22;30830;53.704;10.004;2023-04-10T12:19:09;18.80;74.50
45066;DHT22;30830;53.704;10.004;2023-04-10T12:21:35;18.70;75.70
45066;DHT22;30830;53.704;10.004;2023-04-10T12:24:01;18.50;75.50
45066;DHT22;30830;53.704;10.004;2023-04-10T12:26:27;18.50;75.00
45066;DHT22;30830;53.704;10.004;2023-04-10T12:28:55;18.50;76.50
45066;DHT22;30830;53.704;10.004;2023-04-10T12:31:33;18.60;75.50
45066;DHT22;30830;53.704;10.004;2023-04-10T12:33:59;18.70;76.90
45066;DHT22;30830;53.704;10.004;2023-04-10T12:36:29;18.70;75.20
45066;DHT22;30830;53.704;10.004;2023-04-10T12:38:56;18.70;75.50
45066;DHT22;30830;53.704;10.004;2023-04-10T12:41:23;18.70;73.10
45066;DHT22;30830;53.704;10.004;2023-04-10T12:43:51;18.70;72.50
45066;DHT22;30830;53.704;10.004;2023-04-10T12:46:27;18.70;74.90
45066;DHT22;30830;53.704;10.004;2023-04-10T12:48:54;18.70;73.40
45066;DHT22;30830;53.704;10.004;2023-04-10T12:51:40;18.80;73.20
45066;DHT22;30830;53.704;10.004;2023-04-10T12:54:06;18.80;73.90
45066;DHT22;30830;53.704;10.004;2023-04-10T12:56:43;18.90;74.80
45066;DHT22;30830;53.704;10.004;2023-04-10T12:59:09;18.90;73.80
45066;DHT22;30830;53.704;10.004;2023-04-10T13:01:37;18.90;73.00
45066;DHT22;30830;53.704;10.004;2023-04-10T13:04:03;18.90;73.80
45066;DHT22;30830;53.704;10.004;2023-04-10T13:06:28;19.00;70.80
45066;DHT22;30830;53.704;10.004;2023-04-10T13:08:54;19.00;72.80
45066;DHT22;30830;53.704;10.004;2023-04-10T13:11:20;19.00;71.30
45066;DHT22;30830;53.704;10.004;2023-04-10T13:13:47;18.90;71.70
45066;DHT22;30830;53.704;10.004;2023-04-10T13:16:13;18.90;71.00
45066;DHT22;30830;53.704;10.004;2023-04-10T13:18:38;18.90;71.00
45066;DHT22;30830;53.704;10.004;2023-04-10T13:21:04;18.80;70.20
45066;DHT22;30830;53.704;10.004;2023-04-10T13:23:30;18.70;68.80
45066;DHT22;30830;53.704;10.004;2023-04-10T13:25:55;18.70;72.00
45066;DHT22;30830;53.704;10.004;2023-04-10T13:28:23;18.70;72.00
45066;DHT22;30830;53.704;10.004;2023-04-10T13:30:49;18.70;69.50
45066;DHT22;30830;53.704;10.004;2023-04-10T13:33:14;18.60;70.90
45066;DHT22;30830;53.704;10.004;2023-04-10T13:35:40;18.70;70.60
45066;DHT22;30830;53.704;10.004;2023-04-10T13:38:06;18.70;70.50
45066;DHT22;30830;53.704;10.004;2023-04-10T13:40:33;18.60;70.00
45066;DHT22;30830;53.704;10.004;2023-04-10T13:42:59;18.50;70.40
45066;DHT22;30830;53.704;10.004;2023-04-10T13:45:24;18.40;70.10
45066;DHT22;30830;53.704;10.004;2023-04-10T13:47:50;18.30;69.00
45066;DHT22;30830;53.704;10.004;2023-04-10T13:50:16;18.20;70.20
45066;DHT22;30830;53.704;10.004;2023-04-10T13:52:41;18.20;71.00
45066;DHT22;30830;53.704;10.004;2023-04-10T13:55:07;18.20;68.70
45066;DHT22;30830;53.704;10.004;2023-04-10T13:57:33;18.20;71.60
45066;DHT22;30830;53.704;10.004;2023-04-10T13:59:59;18.20;69.30
45066;DHT22;30830;53.704;10.004;2023-04-10T14:02:25;18.20;68.80
45066;DHT22;30830;53.704;10.004;2023-04-10T14:04:50;18.20;69.50
45066;DHT22;30830;53.704;10.004;2023-04-10T14:07:17;18.20;71.20
45066;DHT22;30830;53.704;10.004;2023-04-10T14:09:43;18.20;70.30
45066;DHT22;30830;53.704;10.004;2023-04-10T14:12:10;18.20;69.50
45066;DHT22;30830;53.704;10.004;2023-04-10T14:14:36;18.20;69.40
45066;DHT22;30830;53.704;10.004;2023-04-10T14:17:02;18.20;70.50
45066;DHT22;30830;53.704;10.004;2023-04-10T14:19:27;18.20;70.80
45066;DHT22;30830;53.704;10.004;2023-04-10T14:21:53;18.20;70.90
45066;DHT22;30830;53.704;10.004;2023-04-10T14:24:18;18.20;72.60
45066;DHT22;30830;53.704;10.004;2023-04-10T14:26:45;18.30;70.70
45066;DHT22;30830;53.704;10.004;2023-04-10T14:29:11;18.30;72.00
45066;DHT22;30830;53.704;10.004;2023-04-10T14:31:36;18.20;71.60
45066;DHT22;30830;53.704;10.004;2023-04-10T14:34:02;18.20;71.40
45066;DHT22;30830;53.704;10.004;2023-04-10T14:36:27;18.20;71.80
45066;DHT22;30830;53.704;10.004;2023-04-10T14:38:53;18.20;73.10
45066;DHT22;30830;53.704;10.004;2023-04-10T14:41:19;18.20;71.70
45066;DHT22;30830;53.704;10.004;2023-04-10T14:43:45;18.20;72.60
45066;DHT22;30830;53.704;10.004;2023-04-10T14:46:10;18.20;71.80
45066;DHT22;30830;53.704;10.004;2023-04-10T14:48:36;18.20;72.10
45066;DHT22;30830;53.704;10.004;2023-04-10T14:51:01;18.20;72.40
45066;DHT22;30830;53.704;10.004;2023-04-10T14:53:28;18.10;73.00
45066;DHT22;30830;53.704;10.004;2023-04-10T14:55:54;18.10;73.30
45066;DHT22;30830;53.704;10.004;2023-04-10T14:58:19;18.10;73.00
45066;DHT22;30830;53.704;10.004;2023-04-10T15:00:45;18.10;72.90
45066;DHT22;30830;53.704;10.004;2023-04-10T15:03:11;18.10;73.60
45066;DHT22;30830;53.704;10.004;2023-04-10T15:05:36;18.10;73.70
45066;DHT22;30830;53.704;10.004;2023-04-10T15:08:02;18.10;74.40
45066;DHT22;30830;53.704;10.004;2023-04-10T15:10:28;18.10;76.30
45066;DHT22;30830;53.704;10.004;2023-04-10T15:12:57;18.10;75.30
45066;DHT22;30830;53.704;10.004;2023-04-10T15:15:22;18.10;74.80
45066;DHT22;30830;53.704;10.004;2023-04-10T15:17:48;18.10;74.90
45066;DHT22;30830;53.704;10.004;2023-04-10T15:20:14;18.10;74.20
45066;DHT22;30830;53.704;10.004;2023-04-10T15:22:39;18.10;73.50
45066;DHT22;30830;53.704;10.004;2023-04-10T15:25:08;18.10;76.10
45066;DHT22;30830;53.704;10.004;2023-04-10T15:27:36;18.10;76.00
45066;DHT22;30830;53.704;10.004;2023-04-10T15:30:03;18.10;75.10
45066;DHT22;30830;53.704;10.004;2023-04-10T15:32:29;18.10;75.70
45066;DHT22;30830;53.704;10.004;2023-04-10T15:34:55;18.00;75.50
45066;DHT22;30830;53.704;10.004;2023-04-10T15:37:20;17.90;74.70
45066;DHT22;30830;53.704;10.004;2023-04-10T15:39:46;17.90;74.30
45066;DHT22;30830;53.704;10.004;2023-04-10T15:42:12;17.80;73.10
45066;DHT22;30830;53.704;10.004;2023-04-10T15:44:37;17.80;74.20
45066;DHT22;30830;53.704;10.004;2023-04-10T15:47:03;17.80;74.50
45066;DHT22;30830;53.704;10.004;2023-04-10T15:49:29;17.70;73.70
45066;DHT22;30830;53.704;10.004;2023-04-10T15:51:55;17.80;76.00
45066;DHT22;30830;53.704;10.004;2023-04-10T15:54:20;17.90;76.80
45066;DHT22;30830;53.704;10.004;2023-04-10T15:56:46;17.90;76.20
45066;DHT22;30830;53.704;10.004;2023-04-10T15:59:12;17.90;77.60
45066;DHT22;30830;53.704;10.004;2023-04-10T16:01:37;17.90;77.00
45066;DHT22;30830;53.704;10.004;2023-04-10T16:04:03;17.80;76.10